createdAt,value
2022-11-19T00:00:09.375Z,97.34
2022-11-19T00:02:35.769Z,97.15
2022-11-19T00:05:02.146Z,96.90
2022-11-19T00:07:28.503Z,96.77
2022-11-19T00:09:54.887Z,96.72
2022-11-19T00:12:21.213Z,96.57
2022-11-19T00:14:47.559Z,96.62
2022-11-19T00:17:13.878Z,96.53
2022-11-19T00:19:40.256Z,96.52
2022-11-19T00:22:06.573Z,96.40
2022-11-19T00:24:32.961Z,96.61
2022-11-19T00:26:59.325Z,96.73
2022-11-19T00:29:25.662Z,96.70
2022-11-19T00:31:52.065Z,96.84
2022-11-19T00:34:18.436Z,96.91
2022-11-19T00:36:44.791Z,97.06
2022-11-19T00:39:11.163Z,96.93
2022-11-19T00:41:37.473Z,96.29
2022-11-19T00:44:03.824Z,100.00
2022-11-19T00:46:30.146Z,100.00
2022-11-19T00:48:56.534Z,100.00
2022-11-19T00:51:22.864Z,100.00
2022-11-19T00:53:49.213Z,100.00
2022-11-19T00:56:15.590Z,100.00
2022-11-19T00:58:41.979Z,100.00
2022-11-19T01:01:08.412Z,100.00
2022-11-19T01:03:34.724Z,100.00
2022-11-19T01:06:01.080Z,100.00
2022-11-19T01:08:27.422Z,100.00
2022-11-19T01:10:53.783Z,100.00
2022-11-19T01:13:20.195Z,100.00
2022-11-19T01:15:46.515Z,100.00
2022-11-19T01:18:12.901Z,100.00
2022-11-19T01:20:39.278Z,100.00
2022-11-19T01:23:05.590Z,100.00
2022-11-19T01:25:31.946Z,100.00
2022-11-19T01:27:58.288Z,100.00
2022-11-19T01:30:24.655Z,100.00
2022-11-19T01:32:51.035Z,100.00
2022-11-19T01:35:17.390Z,100.00
2022-11-19T01:37:43.808Z,100.00
2022-11-19T01:40:10.128Z,100.00
2022-11-19T01:42:36.517Z,100.00
2022-11-19T01:45:02.878Z,100.00
2022-11-19T01:47:29.225Z,100.00
2022-11-19T01:49:55.591Z,100.00
2022-11-19T01:52:21.941Z,100.00
2022-11-19T01:54:48.327Z,100.00
2022-11-19T01:57:14.707Z,100.00
2022-11-19T01:59:41.099Z,100.00
2022-11-19T02:02:07.472Z,100.00
2022-11-19T02:04:33.831Z,100.00
2022-11-19T02:07:00.297Z,100.00
2022-11-19T02:09:26.598Z,100.00
2022-11-19T02:11:52.951Z,100.00
2022-11-19T02:14:19.278Z,100.00
2022-11-19T02:16:45.650Z,100.00
2022-11-19T02:19:11.962Z,100.00
2022-11-19T02:21:38.349Z,100.00
2022-11-19T02:24:04.677Z,100.00
2022-11-19T02:26:31.060Z,100.00
2022-11-19T02:28:57.378Z,100.00
2022-11-19T02:31:23.770Z,100.00
2022-11-19T02:33:50.124Z,100.00
2022-11-19T02:36:16.504Z,100.00
2022-11-19T02:38:42.831Z,100.00
2022-11-19T02:41:09.226Z,100.00
2022-11-19T02:43:35.540Z,100.00
2022-11-19T02:46:01.956Z,100.00
2022-11-19T02:48:28.242Z,100.00
2022-11-19T02:50:54.588Z,100.00
2022-11-19T02:53:20.982Z,100.00
2022-11-19T02:55:47.322Z,100.00
2022-11-19T02:58:13.685Z,100.00
2022-11-19T03:00:40.069Z,100.00
2022-11-19T03:03:06.386Z,100.00
2022-11-19T03:05:32.775Z,100.00
2022-11-19T03:07:59.160Z,100.00
2022-11-19T03:10:25.500Z,100.00
2022-11-19T03:12:51.856Z,100.00
2022-11-19T03:15:18.228Z,100.00
2022-11-19T03:17:44.599Z,100.00
2022-11-19T03:20:10.941Z,100.00
2022-11-19T03:22:37.334Z,100.00
2022-11-19T03:25:03.730Z,100.00
2022-11-19T03:27:30.081Z,100.00
2022-11-19T03:29:56.500Z,100.00
2022-11-19T03:32:22.849Z,100.00
2022-11-19T03:34:49.228Z,100.00
2022-11-19T03:37:15.613Z,100.00
2022-11-19T03:39:41.993Z,100.00
2022-11-19T03:42:08.355Z,100.00
2022-11-19T03:44:34.739Z,100.00
2022-11-19T03:47:01.145Z,100.00
2022-11-19T03:49:27.488Z,100.00
2022-11-19T03:51:53.852Z,100.00
2022-11-19T03:54:20.258Z,100.00
2022-11-19T03:56:46.577Z,100.00
2022-11-19T03:59:12.971Z,100.00
2022-11-19T04:01:39.389Z,100.00
2022-11-19T04:04:05.730Z,100.00
2022-11-19T04:06:32.085Z,100.00
2022-11-19T04:08:58.445Z,100.00
2022-11-19T04:13:50.089Z,100.00
2022-11-19T04:16:16.452Z,100.00
2022-11-19T04:18:42.836Z,100.00
2022-11-19T04:21:09.294Z,100.00
2022-11-19T04:23:35.654Z,100.00
2022-11-19T04:26:01.970Z,100.00
2022-11-19T04:28:28.345Z,100.00
2022-11-19T04:30:54.710Z,100.00
2022-11-19T04:33:21.054Z,100.00
2022-11-19T04:35:47.397Z,100.00
2022-11-19T04:38:13.743Z,100.00
2022-11-19T04:40:40.062Z,100.00
2022-11-19T04:43:06.452Z,100.00
2022-11-19T04:45:32.773Z,100.00
2022-11-19T04:47:59.155Z,100.00
2022-11-19T04:50:25.479Z,100.00
2022-11-19T04:52:51.934Z,100.00
2022-11-19T04:55:18.214Z,100.00
2022-11-19T04:57:44.560Z,100.00
2022-11-19T05:00:10.925Z,100.00
2022-11-19T05:02:37.316Z,100.00
2022-11-19T05:05:03.749Z,100.00
2022-11-19T05:07:30.221Z,100.00
2022-11-19T05:09:56.443Z,100.00
2022-11-19T05:12:22.807Z,100.00
2022-11-19T05:14:49.137Z,100.00
2022-11-19T05:17:15.530Z,100.00
2022-11-19T05:19:41.891Z,100.00
2022-11-19T05:22:08.280Z,100.00
2022-11-19T05:24:34.640Z,100.00
2022-11-19T05:27:01.011Z,100.00
2022-11-19T05:29:27.332Z,100.00
2022-11-19T05:31:53.681Z,100.00
2022-11-19T05:34:20.051Z,100.00
2022-11-19T05:36:46.427Z,100.00
2022-11-19T05:39:16.163Z,100.00
2022-11-19T05:41:39.165Z,100.00
2022-11-19T05:44:05.520Z,100.00
2022-11-19T05:46:31.904Z,100.00
2022-11-19T05:48:58.237Z,100.00
2022-11-19T05:51:24.623Z,100.00
2022-11-19T05:53:50.990Z,100.00
2022-11-19T05:56:17.308Z,100.00
2022-11-19T05:58:43.634Z,100.00
2022-11-19T06:01:09.985Z,100.00
2022-11-19T06:03:36.344Z,100.00
2022-11-19T06:06:02.732Z,100.00
2022-11-19T06:08:29.081Z,100.00
2022-11-19T06:10:55.463Z,100.00
2022-11-19T06:13:21.795Z,100.00
2022-11-19T06:15:48.144Z,100.00
2022-11-19T06:18:14.510Z,100.00
2022-11-19T06:20:40.887Z,100.00
2022-11-19T06:23:07.213Z,100.00
2022-11-19T06:25:33.634Z,100.00
2022-11-19T06:27:59.954Z,100.00
2022-11-19T06:30:26.305Z,100.00
2022-11-19T06:32:52.634Z,100.00
2022-11-19T06:35:19.124Z,100.00
2022-11-19T06:37:45.436Z,100.00
2022-11-19T06:40:11.825Z,100.00
2022-11-19T06:42:38.212Z,100.00
2022-11-19T06:45:04.532Z,100.00
2022-11-19T06:47:30.908Z,100.00
2022-11-19T06:49:57.277Z,100.00
2022-11-19T06:52:23.601Z,100.00
2022-11-19T06:54:50.023Z,100.00
2022-11-19T06:57:16.343Z,100.00
2022-11-19T06:59:42.705Z,100.00
2022-11-19T07:02:09.128Z,100.00
2022-11-19T07:04:35.424Z,100.00
2022-11-19T07:07:01.826Z,100.00
2022-11-19T07:09:28.194Z,100.00
2022-11-19T07:11:54.505Z,100.00
2022-11-19T07:14:21.024Z,100.00
2022-11-19T07:16:47.311Z,100.00
2022-11-19T07:19:13.731Z,100.00
2022-11-19T07:21:40.061Z,100.00
2022-11-19T07:24:06.478Z,100.00
2022-11-19T07:26:32.829Z,100.00
2022-11-19T07:29:03.281Z,98.92
2022-11-19T07:31:25.546Z,96.21
2022-11-19T07:33:51.894Z,94.33
2022-11-19T07:36:18.789Z,92.59
2022-11-19T07:38:44.611Z,91.32
2022-11-19T07:41:10.938Z,91.72
2022-11-19T07:43:37.290Z,92.07
2022-11-19T07:46:03.646Z,92.12
2022-11-19T07:48:30.028Z,93.52
2022-11-19T07:50:56.743Z,94.61
2022-11-19T07:53:22.778Z,94.19
2022-11-19T07:55:49.091Z,94.45
2022-11-19T07:58:15.480Z,83.94
2022-11-19T08:00:41.793Z,79.65
2022-11-19T08:03:08.138Z,78.43
2022-11-19T08:05:34.467Z,78.74
2022-11-19T08:08:00.783Z,78.40
2022-11-19T08:10:31.538Z,79.06
2022-11-19T08:12:53.526Z,81.10
2022-11-19T08:15:19.906Z,81.01
2022-11-19T08:17:46.261Z,81.63
2022-11-19T08:20:12.678Z,81.13
2022-11-19T08:22:38.989Z,82.69
2022-11-19T08:25:05.337Z,83.47
2022-11-19T08:27:31.750Z,84.62
2022-11-19T08:29:58.131Z,85.09
2022-11-19T08:32:24.447Z,83.79
2022-11-19T08:34:50.834Z,82.73
2022-11-19T08:37:17.205Z,81.50
2022-11-19T08:39:43.626Z,81.16
2022-11-19T08:42:09.967Z,82.04
2022-11-19T08:44:36.349Z,82.71
2022-11-19T08:47:02.720Z,83.38
2022-11-19T08:49:29.060Z,84.24
2022-11-19T08:51:55.435Z,84.40
2022-11-19T08:54:22.292Z,84.68
2022-11-19T08:56:48.476Z,84.17
2022-11-19T08:59:14.853Z,82.07
2022-11-19T09:01:41.210Z,81.32
2022-11-19T09:04:07.584Z,81.71
2022-11-19T09:06:33.896Z,80.72
2022-11-19T09:09:00.245Z,81.09
2022-11-19T09:11:26.606Z,81.19
2022-11-19T09:13:52.958Z,81.85
2022-11-19T09:16:19.319Z,79.27
2022-11-19T09:18:45.693Z,75.96
2022-11-19T09:21:12.031Z,76.16
2022-11-19T09:23:38.411Z,76.45
2022-11-19T09:26:04.722Z,74.39
2022-11-19T09:28:31.081Z,73.66
2022-11-19T09:30:57.398Z,73.65
2022-11-19T09:33:23.750Z,74.09
2022-11-19T09:35:50.102Z,71.38
2022-11-19T09:38:16.482Z,71.14
2022-11-19T09:40:42.799Z,70.55
2022-11-19T09:43:13.938Z,67.83
2022-11-19T09:45:35.540Z,66.75
2022-11-19T09:48:01.876Z,67.55
2022-11-19T09:50:28.235Z,68.82
2022-11-19T09:52:54.563Z,66.70
2022-11-19T09:55:20.928Z,65.10
2022-11-19T09:57:47.283Z,62.96
2022-11-19T10:00:13.615Z,61.62
2022-11-19T10:02:40.030Z,62.41
2022-11-19T10:05:06.383Z,62.10
2022-11-19T10:07:32.830Z,60.88
2022-11-19T10:09:59.051Z,59.82
2022-11-19T10:12:25.427Z,58.83
2022-11-19T10:14:51.763Z,59.38
2022-11-19T10:17:18.121Z,58.31
2022-11-19T10:19:44.501Z,57.82
2022-11-19T10:22:10.844Z,58.06
2022-11-19T10:24:37.265Z,55.08
2022-11-19T10:27:08.544Z,55.93
2022-11-19T10:29:29.972Z,56.60
2022-11-19T10:31:56.316Z,58.77
2022-11-19T10:34:22.711Z,57.92
2022-11-19T10:36:49.084Z,57.90
2022-11-19T10:39:15.446Z,57.66
2022-11-19T10:41:41.821Z,57.73
2022-11-19T10:44:08.172Z,59.24
2022-11-19T10:46:34.526Z,58.61
2022-11-19T10:49:00.848Z,59.30
2022-11-19T10:51:27.233Z,59.09
2022-11-19T10:53:53.621Z,57.92
2022-11-19T10:56:19.953Z,57.00
2022-11-19T10:58:46.271Z,58.13
2022-11-19T11:01:12.652Z,56.40
2022-11-19T11:03:38.944Z,56.01
2022-11-19T11:06:05.353Z,56.56
2022-11-19T11:08:31.641Z,57.33
2022-11-19T11:10:58.023Z,57.57
2022-11-19T11:13:24.393Z,57.15
2022-11-19T11:15:50.803Z,56.88
2022-11-19T11:18:17.114Z,56.59
2022-11-19T11:20:43.494Z,57.22
2022-11-19T11:23:09.808Z,54.88
2022-11-19T11:25:36.161Z,54.25
2022-11-19T11:28:02.488Z,54.61
2022-11-19T11:30:28.877Z,54.04
2022-11-19T11:32:55.202Z,52.19
2022-11-19T11:35:21.542Z,52.78
2022-11-19T11:37:47.903Z,53.50
2022-11-19T11:40:14.354Z,53.83
2022-11-19T11:42:40.597Z,54.56
2022-11-19T11:45:06.938Z,54.01
2022-11-19T11:47:33.304Z,52.72
2022-11-19T11:49:59.700Z,52.82
2022-11-19T11:52:26.049Z,53.80
2022-11-19T11:54:52.390Z,54.11
2022-11-19T11:57:18.802Z,52.95
2022-11-19T11:59:45.208Z,53.53
2022-11-19T12:02:11.628Z,53.63
2022-11-19T12:04:37.984Z,54.32
2022-11-19T12:07:04.401Z,54.94
2022-11-19T12:09:30.771Z,55.56
2022-11-19T12:11:57.113Z,56.13
2022-11-19T12:14:23.447Z,56.53
2022-11-19T12:16:49.805Z,56.76
2022-11-19T12:19:16.202Z,56.84
2022-11-19T12:21:42.564Z,57.40
2022-11-19T12:24:08.905Z,57.78
2022-11-19T12:26:35.266Z,57.92
2022-11-19T12:29:01.633Z,57.53
2022-11-19T12:31:30.060Z,57.73
2022-11-19T12:33:54.370Z,58.12
2022-11-19T12:36:20.686Z,58.31
2022-11-19T12:38:47.045Z,58.51
2022-11-19T12:41:13.386Z,58.73
2022-11-19T12:43:39.753Z,58.85
2022-11-19T12:46:06.177Z,58.30
2022-11-19T12:48:32.487Z,58.41
2022-11-19T12:50:58.824Z,59.00
2022-11-19T12:53:25.196Z,59.22
2022-11-19T12:55:51.510Z,59.61
2022-11-19T12:58:17.859Z,59.65
2022-11-19T13:00:44.190Z,59.67
2022-11-19T13:03:10.752Z,60.22
2022-11-19T13:05:37.097Z,60.62
2022-11-19T13:08:03.465Z,60.60
2022-11-19T13:10:29.852Z,61.21
2022-11-19T13:12:56.220Z,61.55
2022-11-19T13:15:22.574Z,61.88
2022-11-19T13:17:48.939Z,61.82
2022-11-19T13:20:15.276Z,62.21
2022-11-19T13:22:41.633Z,62.58
2022-11-19T13:25:07.957Z,62.73
2022-11-19T13:27:34.328Z,62.99
2022-11-19T13:30:00.688Z,63.29
2022-11-19T13:32:27.063Z,63.70
2022-11-19T13:34:53.454Z,64.17
2022-11-19T13:37:19.831Z,64.33
2022-11-19T13:39:46.235Z,64.74
2022-11-19T13:42:12.530Z,64.94
2022-11-19T13:44:38.887Z,65.13
2022-11-19T13:47:05.304Z,65.31
2022-11-19T13:49:31.670Z,65.61
2022-11-19T13:51:58.047Z,65.86
2022-11-19T13:54:24.407Z,66.09
2022-11-19T13:56:50.749Z,66.24
2022-11-19T13:59:17.253Z,66.44
2022-11-19T14:01:43.546Z,66.59
2022-11-19T14:04:09.816Z,67.36
2022-11-19T14:06:36.193Z,67.81
2022-11-19T14:09:02.549Z,67.81
2022-11-19T14:11:28.921Z,68.01
2022-11-19T14:13:55.295Z,68.30
2022-11-19T14:16:21.647Z,68.67
2022-11-19T14:18:53.068Z,69.16
2022-11-19T14:21:14.358Z,69.50
2022-11-19T14:23:40.719Z,69.84
2022-11-19T14:26:07.072Z,69.42
2022-11-19T14:28:33.396Z,69.96
2022-11-19T14:30:59.764Z,70.54
2022-11-19T14:33:26.086Z,70.58
2022-11-19T14:35:52.492Z,70.83
2022-11-19T14:38:18.810Z,71.56
2022-11-19T14:40:45.181Z,71.82
2022-11-19T14:43:11.535Z,72.21
2022-11-19T14:45:37.907Z,72.44
2022-11-19T14:48:04.301Z,72.75
2022-11-19T14:50:30.644Z,73.01
2022-11-19T14:52:56.998Z,73.39
2022-11-19T14:55:23.370Z,73.44
2022-11-19T14:57:49.697Z,73.96
2022-11-19T15:00:16.073Z,73.96
2022-11-19T15:02:42.389Z,73.83
2022-11-19T15:05:08.730Z,74.32
2022-11-19T15:07:35.195Z,74.58
2022-11-19T15:10:01.532Z,74.62
2022-11-19T15:12:27.802Z,74.87
2022-11-19T15:14:54.169Z,75.11
2022-11-19T15:17:20.490Z,75.25
2022-11-19T15:19:46.859Z,75.31
2022-11-19T15:22:13.216Z,75.25
2022-11-19T15:24:39.591Z,74.90
2022-11-19T15:27:05.955Z,73.89
2022-11-19T15:29:32.317Z,73.68
2022-11-19T15:31:58.659Z,73.93
2022-11-19T15:34:25.019Z,74.04
2022-11-19T15:36:51.406Z,74.38
2022-11-19T15:39:18.362Z,74.31
2022-11-19T15:41:44.159Z,73.60
2022-11-19T15:44:10.566Z,73.22
2022-11-19T15:46:36.876Z,72.10
2022-11-19T15:49:03.243Z,72.48
2022-11-19T15:51:29.608Z,71.97
2022-11-19T15:53:55.943Z,70.53
2022-11-19T15:56:22.267Z,69.90
2022-11-19T15:58:48.607Z,70.70
2022-11-19T16:01:15.020Z,70.82
2022-11-19T16:03:41.354Z,71.20
2022-11-19T16:06:07.698Z,71.56
2022-11-19T16:08:34.058Z,71.63
2022-11-19T16:11:00.374Z,71.59
2022-11-19T16:13:26.779Z,71.47
2022-11-19T16:15:53.096Z,71.85
2022-11-19T16:18:19.471Z,72.32
2022-11-19T16:20:45.847Z,72.39
2022-11-19T16:23:12.216Z,72.79
2022-11-19T16:25:38.551Z,73.13
2022-11-19T16:28:04.902Z,73.30
2022-11-19T16:30:31.272Z,73.24
2022-11-19T16:32:57.603Z,73.28
2022-11-19T16:35:23.926Z,73.40
2022-11-19T16:37:50.376Z,73.65
2022-11-19T16:40:16.655Z,73.70
2022-11-19T16:42:43.038Z,73.74
2022-11-19T16:45:09.398Z,73.78
2022-11-19T16:47:35.742Z,73.99
2022-11-19T16:50:02.129Z,74.01
2022-11-19T16:52:28.483Z,74.02
2022-11-19T16:54:54.823Z,73.81
2022-11-19T16:57:21.232Z,73.69
2022-11-19T16:59:47.557Z,73.83
2022-11-19T17:02:13.943Z,74.26
2022-11-19T17:04:40.340Z,74.34
2022-11-19T17:07:06.743Z,74.42
2022-11-19T17:09:33.064Z,74.79
2022-11-19T17:11:59.431Z,74.84
2022-11-19T17:14:25.770Z,74.64
2022-11-19T17:16:52.149Z,74.42
2022-11-19T17:19:18.502Z,80.51
2022-11-19T17:21:44.863Z,81.69
2022-11-19T17:24:11.201Z,79.20
2022-11-19T17:26:37.550Z,77.78
2022-11-19T17:29:03.893Z,74.68
2022-11-19T17:31:30.237Z,72.81
2022-11-19T17:33:56.577Z,71.58
2022-11-19T17:36:22.952Z,71.08
2022-11-19T17:38:49.319Z,72.10
2022-11-19T17:41:15.722Z,72.62
2022-11-19T17:43:42.050Z,73.25
2022-11-19T17:46:08.400Z,73.87
2022-11-19T17:48:34.739Z,74.53
2022-11-19T17:51:01.091Z,74.43
2022-11-19T17:53:27.414Z,74.21
2022-11-19T17:55:53.779Z,74.73
2022-11-19T17:58:20.124Z,74.91
2022-11-19T18:00:46.486Z,74.91
2022-11-19T18:03:12.803Z,75.32
2022-11-19T18:05:39.219Z,74.29
2022-11-19T18:08:05.553Z,74.46
2022-11-19T18:10:31.950Z,75.01
2022-11-19T18:12:58.270Z,75.23
2022-11-19T18:15:24.636Z,75.48
2022-11-19T18:17:50.987Z,75.71
2022-11-19T18:20:17.324Z,75.32
2022-11-19T18:22:43.671Z,75.78
2022-11-19T18:25:10.039Z,76.21
2022-11-19T18:27:36.384Z,75.22
2022-11-19T18:30:02.771Z,75.40
2022-11-19T18:32:29.132Z,75.80
2022-11-19T18:34:59.212Z,76.42
2022-11-19T18:37:22.891Z,76.77
2022-11-19T18:39:49.223Z,77.14
2022-11-19T18:42:15.595Z,76.19
2022-11-19T18:44:41.933Z,75.31
2022-11-19T18:47:08.314Z,75.08
2022-11-19T18:49:34.703Z,75.76
2022-11-19T18:52:01.058Z,76.06
2022-11-19T18:54:27.418Z,75.87
2022-11-19T18:56:53.769Z,75.49
2022-11-19T18:59:20.263Z,75.70
2022-11-19T19:01:46.477Z,76.31
2022-11-19T19:04:14.456Z,76.35
2022-11-19T19:06:39.171Z,76.98
2022-11-19T19:09:05.547Z,76.28
2022-11-19T19:11:31.930Z,76.45
2022-11-19T19:13:58.257Z,76.03
2022-11-19T19:16:24.638Z,76.09
2022-11-19T19:18:50.993Z,76.64
2022-11-19T19:21:17.324Z,76.80
2022-11-19T19:23:43.708Z,77.68
2022-11-19T19:26:10.048Z,77.87
2022-11-19T19:28:36.404Z,77.16
2022-11-19T19:31:02.796Z,77.12
2022-11-19T19:33:29.139Z,76.93
2022-11-19T19:35:55.521Z,77.92
2022-11-19T19:38:21.875Z,78.86
2022-11-19T19:40:48.250Z,78.40
2022-11-19T19:43:14.566Z,78.89
2022-11-19T19:45:40.942Z,79.54
2022-11-19T19:48:07.317Z,79.56
2022-11-19T19:50:33.658Z,79.55
2022-11-19T19:52:59.980Z,79.97
2022-11-19T19:55:26.344Z,79.93
2022-11-19T19:57:52.703Z,80.21
2022-11-19T20:00:19.038Z,80.70
2022-11-19T20:02:45.421Z,80.92
2022-11-19T20:05:11.760Z,80.51
2022-11-19T20:07:38.127Z,80.33
2022-11-19T20:10:04.459Z,80.51
2022-11-19T20:12:30.785Z,80.97
2022-11-19T20:14:57.187Z,81.16
2022-11-19T20:17:23.506Z,81.09
2022-11-19T20:19:49.897Z,81.44
2022-11-19T20:22:16.236Z,81.80
2022-11-19T20:24:42.597Z,81.80
2022-11-19T20:27:08.926Z,81.94
2022-11-19T20:29:35.277Z,82.03
2022-11-19T20:32:01.658Z,82.20
2022-11-19T20:34:27.999Z,82.16
2022-11-19T20:36:54.325Z,82.36
2022-11-19T20:39:21.005Z,82.35
2022-11-19T20:41:47.085Z,82.21
2022-11-19T20:44:13.450Z,82.30
2022-11-19T20:46:39.768Z,82.42
2022-11-19T20:49:06.110Z,82.46
2022-11-19T20:51:32.469Z,82.88
2022-11-19T20:53:58.861Z,82.83
2022-11-19T20:56:25.209Z,82.84
2022-11-19T20:58:51.570Z,82.77
2022-11-19T21:01:17.916Z,82.91
2022-11-19T21:03:44.277Z,83.24
2022-11-19T21:06:10.594Z,83.14
2022-11-19T21:08:37.186Z,82.99
2022-11-19T21:11:03.334Z,83.04
2022-11-19T21:13:29.709Z,82.98
2022-11-19T21:15:56.024Z,83.23
2022-11-19T21:18:24.384Z,83.12
2022-11-19T21:20:48.692Z,83.25
2022-11-19T21:23:15.042Z,83.36
2022-11-19T21:25:41.410Z,83.58
2022-11-19T21:28:07.801Z,83.45
2022-11-19T21:30:34.197Z,83.44
2022-11-19T21:33:00.543Z,83.57
2022-11-19T21:35:26.867Z,83.84
2022-11-19T21:37:53.256Z,83.92
2022-11-19T21:40:19.584Z,83.92
2022-11-19T21:42:45.985Z,84.37
2022-11-19T21:45:12.336Z,84.43
2022-11-19T21:47:38.757Z,84.00
2022-11-19T21:50:05.118Z,84.24
2022-11-19T21:52:31.441Z,84.44
2022-11-19T21:54:57.773Z,84.47
2022-11-19T21:57:24.124Z,84.46
2022-11-19T21:59:50.481Z,84.48
2022-11-19T22:02:16.838Z,84.54
2022-11-19T22:04:43.199Z,84.53
2022-11-19T22:07:09.632Z,84.49
2022-11-19T22:09:35.943Z,84.44
2022-11-19T22:12:02.337Z,84.42
2022-11-19T22:14:28.660Z,84.42
2022-11-19T22:16:55.009Z,84.68
2022-11-19T22:19:21.417Z,84.75
2022-11-19T22:21:47.743Z,84.42
2022-11-19T22:24:14.099Z,84.31
2022-11-19T22:26:40.482Z,84.52
2022-11-19T22:29:06.866Z,84.39
2022-11-19T22:31:33.251Z,84.25
2022-11-19T22:33:59.572Z,84.12
2022-11-19T22:36:25.960Z,84.36
2022-11-19T22:38:52.378Z,84.29
2022-11-19T22:41:18.696Z,84.26
2022-11-19T22:43:45.025Z,84.08
2022-11-19T22:46:11.382Z,83.87
2022-11-19T22:48:37.703Z,84.00
2022-11-19T22:51:04.102Z,84.12
2022-11-19T22:53:30.492Z,83.86
2022-11-19T22:55:56.869Z,83.96
2022-11-19T22:58:23.189Z,83.32
2022-11-19T23:00:49.631Z,82.76
2022-11-19T23:03:15.942Z,82.16
2022-11-19T23:05:42.291Z,82.33
2022-11-19T23:08:08.613Z,82.32
2022-11-19T23:10:35.018Z,81.62
2022-11-19T23:13:01.333Z,81.18
2022-11-19T23:15:27.685Z,81.03
2022-11-19T23:17:54.051Z,81.29
2022-11-19T23:20:20.468Z,81.60
2022-11-19T23:22:46.789Z,81.90
2022-11-19T23:25:13.172Z,81.03
2022-11-19T23:27:39.501Z,80.80
2022-11-19T23:30:05.888Z,80.38
2022-11-19T23:32:32.261Z,79.94
2022-11-19T23:34:58.681Z,79.97
2022-11-19T23:37:24.993Z,79.54
2022-11-19T23:39:51.380Z,79.35
2022-11-19T23:42:17.747Z,79.43
2022-11-19T23:44:44.137Z,79.52
2022-11-19T23:47:10.499Z,79.61
2022-11-19T23:49:36.894Z,79.88
2022-11-19T23:52:03.251Z,80.32
2022-11-19T23:54:29.665Z,80.47
2022-11-19T23:56:56.033Z,80.51
2022-11-19T23:59:25.589Z,80.49
